sensor_id;sensor_type;location;lat;lon;timestamp;pressure;altitude;pressure_sealevel;temperature;humidity
73518;BME280;61766;60.318;25.044;2022-09-29T00:01:22;100404.60;;;12.03;43.33
73518;BME280;61766;60.318;25.044;2022-09-29T00:03:47;100399.65;;;11.80;42.80
73518;BME280;61766;60.318;25.044;2022-09-29T00:06:14;100398.32;;;12.03;42.86
73518;BME280;61766;60.318;25.044;2022-09-29T00:08:37;100397.79;;;11.85;42.85
73518;BME280;61766;60.318;25.044;2022-09-29T00:11:06;100396.29;;;12.31;42.58
73518;BME280;61766;60.318;25.044;2022-09-29T00:13:27;100394.23;;;11.59;43.27
73518;BME280;61766;60.318;25.044;2022-09-29T00:15:55;100389.85;;;11.81;43.60
73518;BME280;61766;60.318;25.044;2022-09-29T00:18:17;100391.80;;;11.86;43.98
73518;BME280;61766;60.318;25.044;2022-09-29T00:20:42;100389.38;;;12.15;43.58
73518;BME280;61766;60.318;25.044;2022-09-29T00:23:07;100390.00;;;11.72;43.62
73518;BME280;61766;60.318;25.044;2022-09-29T00:25:32;100383.16;;;11.56;43.91
73518;BME280;61766;60.318;25.044;2022-09-29T00:27:58;100384.20;;;12.03;43.51
73518;BME280;61766;60.318;25.044;2022-09-29T00:30:22;100386.93;;;11.42;44.68
73518;BME280;61766;60.318;25.044;2022-09-29T00:32:48;100379.78;;;11.75;44.34
73518;BME280;61766;60.318;25.044;2022-09-29T00:35:13;100379.73;;;12.04;44.15
73518;BME280;61766;60.318;25.044;2022-09-29T00:37:38;100381.52;;;11.79;44.76
73518;BME280;61766;60.318;25.044;2022-09-29T00:40:04;100380.97;;;11.58;44.88
73518;BME280;61766;60.318;25.044;2022-09-29T00:42:28;100378.59;;;11.69;45.07
73518;BME280;61766;60.318;25.044;2022-09-29T00:45:01;100373.25;;;11.83;44.88
73518;BME280;61766;60.318;25.044;2022-09-29T00:47:18;100368.81;;;11.50;44.58
73518;BME280;61766;60.318;25.044;2022-09-29T00:49:46;100368.72;;;11.81;44.88
73518;BME280;61766;60.318;25.044;2022-09-29T00:52:11;100365.40;;;11.68;45.12
73518;BME280;61766;60.318;25.044;2022-09-29T00:54:37;100365.61;;;11.39;45.49
73518;BME280;61766;60.318;25.044;2022-09-29T00:57:01;100366.81;;;11.65;45.22
73518;BME280;61766;60.318;25.044;2022-09-29T00:59:30;100359.84;;;11.74;45.09
73518;BME280;61766;60.318;25.044;2022-09-29T01:01:49;100359.49;;;11.68;45.55
73518;BME280;61766;60.318;25.044;2022-09-29T01:04:16;100361.95;;;11.62;45.39
73518;BME280;61766;60.318;25.044;2022-09-29T01:06:40;100356.24;;;11.50;45.44
73518;BME280;61766;60.318;25.044;2022-09-29T01:09:05;100359.17;;;11.28;45.50
73518;BME280;61766;60.318;25.044;2022-09-29T01:11:29;100351.76;;;11.84;45.33
73518;BME280;61766;60.318;25.044;2022-09-29T01:13:54;100350.14;;;11.47;45.31
73518;BME280;61766;60.318;25.044;2022-09-29T01:16:18;100353.15;;;12.14;45.33
73518;BME280;61766;60.318;25.044;2022-09-29T01:18:44;100346.28;;;11.68;45.40
73518;BME280;61766;60.318;25.044;2022-09-29T01:21:16;100345.18;;;11.74;45.29
73518;BME280;61766;60.318;25.044;2022-09-29T01:23:56;100342.27;;;11.78;45.09
73518;BME280;61766;60.318;25.044;2022-09-29T01:26:11;100341.44;;;11.50;45.15
73518;BME280;61766;60.318;25.044;2022-09-29T01:28:46;100339.59;;;11.68;45.02
73518;BME280;61766;60.318;25.044;2022-09-29T01:31:01;100339.77;;;11.87;44.20
73518;BME280;61766;60.318;25.044;2022-09-29T01:33:24;100338.71;;;12.04;43.90
73518;BME280;61766;60.318;25.044;2022-09-29T01:35:47;100336.45;;;12.53;43.82
73518;BME280;61766;60.318;25.044;2022-09-29T01:38:13;100335.15;;;12.26;43.86
73518;BME280;61766;60.318;25.044;2022-09-29T01:40:36;100332.23;;;12.28;44.11
73518;BME280;61766;60.318;25.044;2022-09-29T01:42:57;100330.10;;;12.05;44.60
73518;BME280;61766;60.318;25.044;2022-09-29T01:45:25;100327.46;;;12.19;44.85
73518;BME280;61766;60.318;25.044;2022-09-29T01:47:48;100328.56;;;12.02;44.78
73518;BME280;61766;60.318;25.044;2022-09-29T01:50:15;100327.00;;;11.68;44.92
73518;BME280;61766;60.318;25.044;2022-09-29T01:52:40;100327.48;;;11.79;44.77
73518;BME280;61766;60.318;25.044;2022-09-29T01:55:01;100323.87;;;11.56;45.07
73518;BME280;61766;60.318;25.044;2022-09-29T01:57:29;100320.44;;;11.91;44.47
73518;BME280;61766;60.318;25.044;2022-09-29T01:59:54;100316.84;;;11.84;44.59
73518;BME280;61766;60.318;25.044;2022-09-29T02:02:16;100316.58;;;11.76;44.64
73518;BME280;61766;60.318;25.044;2022-09-29T02:04:42;100313.02;;;11.70;44.41
73518;BME280;61766;60.318;25.044;2022-09-29T02:07:09;100308.69;;;12.31;43.82
73518;BME280;61766;60.318;25.044;2022-09-29T02:09:33;100308.69;;;12.14;43.88
73518;BME280;61766;60.318;25.044;2022-09-29T02:11:56;100305.48;;;12.27;43.83
73518;BME280;61766;60.318;25.044;2022-09-29T02:14:22;100306.30;;;12.01;43.81
73518;BME280;61766;60.318;25.044;2022-09-29T02:16:48;100301.58;;;12.37;43.86
73518;BME280;61766;60.318;25.044;2022-09-29T02:19:14;100299.87;;;12.03;44.36
73518;BME280;61766;60.318;25.044;2022-09-29T02:21:35;100298.50;;;12.03;44.38
73518;BME280;61766;60.318;25.044;2022-09-29T02:24:00;100294.62;;;11.92;44.38
73518;BME280;61766;60.318;25.044;2022-09-29T02:26:29;100292.85;;;11.96;44.51
73518;BME280;61766;60.318;25.044;2022-09-29T02:28:50;100290.30;;;11.81;44.86
73518;BME280;61766;60.318;25.044;2022-09-29T02:31:15;100285.87;;;11.90;44.44
73518;BME280;61766;60.318;25.044;2022-09-29T02:33:40;100284.85;;;12.10;44.15
73518;BME280;61766;60.318;25.044;2022-09-29T02:36:16;100283.22;;;11.87;44.36
73518;BME280;61766;60.318;25.044;2022-09-29T02:38:39;100282.35;;;12.09;44.00
73518;BME280;61766;60.318;25.044;2022-09-29T02:41:01;100280.14;;;12.22;43.90
73518;BME280;61766;60.318;25.044;2022-09-29T02:43:33;100278.52;;;12.56;43.77
73518;BME280;61766;60.318;25.044;2022-09-29T02:45:55;100280.18;;;12.33;44.08
73518;BME280;61766;60.318;25.044;2022-09-29T02:48:20;100275.76;;;12.04;43.85
73518;BME280;61766;60.318;25.044;2022-09-29T02:50:47;100276.13;;;12.17;43.65
73518;BME280;61766;60.318;25.044;2022-09-29T02:53:03;100274.10;;;11.61;44.17
73518;BME280;61766;60.318;25.044;2022-09-29T02:55:32;100270.97;;;11.90;44.59
73518;BME280;61766;60.318;25.044;2022-09-29T02:57:55;100271.93;;;11.97;44.70
73518;BME280;61766;60.318;25.044;2022-09-29T03:00:17;100268.55;;;11.53;45.44
73518;BME280;61766;60.318;25.044;2022-09-29T03:02:42;100269.32;;;11.70;45.25
73518;BME280;61766;60.318;25.044;2022-09-29T03:05:08;100264.45;;;11.46;45.59
73518;BME280;61766;60.318;25.044;2022-09-29T03:07:31;100264.30;;;11.51;45.52
73518;BME280;61766;60.318;25.044;2022-09-29T03:09:56;100260.55;;;11.76;45.17
73518;BME280;61766;60.318;25.044;2022-09-29T03:12:21;100258.29;;;11.79;44.82
73518;BME280;61766;60.318;25.044;2022-09-29T03:14:46;100255.99;;;11.92;43.90
73518;BME280;61766;60.318;25.044;2022-09-29T03:17:11;100255.00;;;12.41;43.56
73518;BME280;61766;60.318;25.044;2022-09-29T03:19:36;100249.11;;;12.39;43.16
73518;BME280;61766;60.318;25.044;2022-09-29T03:22:01;100248.78;;;12.48;43.00
73518;BME280;61766;60.318;25.044;2022-09-29T03:24:26;100247.74;;;12.49;42.79
73518;BME280;61766;60.318;25.044;2022-09-29T03:26:51;100246.47;;;12.64;42.59
73518;BME280;61766;60.318;25.044;2022-09-29T03:29:16;100248.44;;;12.80;42.42
73518;BME280;61766;60.318;25.044;2022-09-29T03:31:41;100246.63;;;12.76;42.15
73518;BME280;61766;60.318;25.044;2022-09-29T03:34:06;100244.98;;;12.75;42.14
73518;BME280;61766;60.318;25.044;2022-09-29T03:36:31;100242.99;;;13.12;42.00
73518;BME280;61766;60.318;25.044;2022-09-29T03:38:57;100241.85;;;12.66;41.84
73518;BME280;61766;60.318;25.044;2022-09-29T03:41:21;100241.88;;;12.96;41.83
73518;BME280;61766;60.318;25.044;2022-09-29T03:43:46;100238.44;;;12.69;42.13
73518;BME280;61766;60.318;25.044;2022-09-29T03:46:12;100238.50;;;13.07;42.18
73518;BME280;61766;60.318;25.044;2022-09-29T03:48:37;100237.09;;;12.97;41.85
73518;BME280;61766;60.318;25.044;2022-09-29T03:51:02;100229.49;;;12.86;41.71
73518;BME280;61766;60.318;25.044;2022-09-29T03:53:27;100227.77;;;12.51;41.99
73518;BME280;61766;60.318;25.044;2022-09-29T03:55:52;100224.34;;;13.02;41.78
73518;BME280;61766;60.318;25.044;2022-09-29T03:58:17;100221.27;;;13.02;41.74
73518;BME280;61766;60.318;25.044;2022-09-29T04:00:42;100220.23;;;12.95;41.71
73518;BME280;61766;60.318;25.044;2022-09-29T04:03:07;100220.85;;;12.90;41.74
73518;BME280;61766;60.318;25.044;2022-09-29T04:05:32;100217.43;;;12.69;42.03
73518;BME280;61766;60.318;25.044;2022-09-29T04:07:57;100214.91;;;12.80;42.18
73518;BME280;61766;60.318;25.044;2022-09-29T04:10:22;100212.39;;;12.43;42.61
73518;BME280;61766;60.318;25.044;2022-09-29T04:12:47;100214.15;;;12.46;42.74
73518;BME280;61766;60.318;25.044;2022-09-29T04:15:12;100207.79;;;12.10;43.06
73518;BME280;61766;60.318;25.044;2022-09-29T04:17:37;100206.75;;;12.21;42.81
73518;BME280;61766;60.318;25.044;2022-09-29T04:20:02;100202.85;;;12.38;42.61
73518;BME280;61766;60.318;25.044;2022-09-29T04:22:27;100200.89;;;12.63;42.80
73518;BME280;61766;60.318;25.044;2022-09-29T04:24:52;100199.12;;;12.31;42.65
73518;BME280;61766;60.318;25.044;2022-09-29T04:27:18;100197.26;;;12.59;42.65
73518;BME280;61766;60.318;25.044;2022-09-29T04:29:42;100193.18;;;12.22;42.38
73518;BME280;61766;60.318;25.044;2022-09-29T04:32:07;100194.03;;;12.28;42.82
73518;BME280;61766;60.318;25.044;2022-09-29T04:34:32;100196.62;;;12.19;43.37
73518;BME280;61766;60.318;25.044;2022-09-29T04:36:59;100195.24;;;11.91;43.43
73518;BME280;61766;60.318;25.044;2022-09-29T04:39:22;100194.07;;;11.24;44.06
73518;BME280;61766;60.318;25.044;2022-09-29T04:41:47;100193.68;;;11.68;43.88
73518;BME280;61766;60.318;25.044;2022-09-29T04:44:12;100190.58;;;11.65;44.18
73518;BME280;61766;60.318;25.044;2022-09-29T04:46:37;100188.79;;;11.97;43.74
73518;BME280;61766;60.318;25.044;2022-09-29T04:49:02;100186.43;;;11.69;43.70
73518;BME280;61766;60.318;25.044;2022-09-29T04:51:28;100185.00;;;11.52;43.89
73518;BME280;61766;60.318;25.044;2022-09-29T04:53:53;100181.54;;;11.61;43.99
73518;BME280;61766;60.318;25.044;2022-09-29T04:56:18;100177.67;;;11.89;43.87
73518;BME280;61766;60.318;25.044;2022-09-29T04:58:43;100177.13;;;11.61;43.94
73518;BME280;61766;60.318;25.044;2022-09-29T05:01:10;100174.93;;;11.77;44.21
73518;BME280;61766;60.318;25.044;2022-09-29T05:03:33;100173.09;;;11.62;44.15
73518;BME280;61766;60.318;25.044;2022-09-29T05:05:58;100172.88;;;11.75;44.16
73518;BME280;61766;60.318;25.044;2022-09-29T05:08:23;100176.50;;;11.65;44.29
73518;BME280;61766;60.318;25.044;2022-09-29T05:10:48;100174.53;;;11.39;44.66
73518;BME280;61766;60.318;25.044;2022-09-29T05:13:13;100176.21;;;11.42;44.47
73518;BME280;61766;60.318;25.044;2022-09-29T05:15:38;100171.62;;;11.46;44.31
73518;BME280;61766;60.318;25.044;2022-09-29T05:18:03;100172.77;;;11.70;44.40
73518;BME280;61766;60.318;25.044;2022-09-29T05:20:28;100173.85;;;11.31;44.91
73518;BME280;61766;60.318;25.044;2022-09-29T05:22:53;100174.35;;;11.59;44.60
73518;BME280;61766;60.318;25.044;2022-09-29T05:25:18;100173.89;;;11.47;44.14
73518;BME280;61766;60.318;25.044;2022-09-29T05:27:43;100172.91;;;11.17;44.79
73518;BME280;61766;60.318;25.044;2022-09-29T05:30:09;100167.27;;;10.57;45.73
73518;BME280;61766;60.318;25.044;2022-09-29T05:32:33;100179.92;;;9.40;48.43
73518;BME280;61766;60.318;25.044;2022-09-29T05:34:59;100177.59;;;9.70;47.79
73518;BME280;61766;60.318;25.044;2022-09-29T05:37:23;100173.44;;;9.99;48.06
73518;BME280;61766;60.318;25.044;2022-09-29T05:39:48;100174.58;;;9.94;46.95
73518;BME280;61766;60.318;25.044;2022-09-29T05:42:13;100164.99;;;10.37;45.75
73518;BME280;61766;60.318;25.044;2022-09-29T05:44:39;100167.97;;;10.35;45.06
73518;BME280;61766;60.318;25.044;2022-09-29T05:47:04;100170.87;;;10.40;46.15
73518;BME280;61766;60.318;25.044;2022-09-29T05:49:29;100175.03;;;10.11;46.17
73518;BME280;61766;60.318;25.044;2022-09-29T05:51:54;100168.80;;;10.28;45.82
73518;BME280;61766;60.318;25.044;2022-09-29T05:54:19;100166.46;;;10.50;45.67
73518;BME280;61766;60.318;25.044;2022-09-29T05:56:44;100166.80;;;10.63;45.34
73518;BME280;61766;60.318;25.044;2022-09-29T05:59:10;100167.98;;;10.71;44.83
73518;BME280;61766;60.318;25.044;2022-09-29T06:01:35;100168.12;;;10.92;44.87
73518;BME280;61766;60.318;25.044;2022-09-29T06:04:00;100166.63;;;10.44;44.98
73518;BME280;61766;60.318;25.044;2022-09-29T06:06:27;100165.32;;;10.96;44.37
73518;BME280;61766;60.318;25.044;2022-09-29T06:08:51;100167.28;;;11.20;44.11
73518;BME280;61766;60.318;25.044;2022-09-29T06:11:16;100165.75;;;10.44;44.81
73518;BME280;61766;60.318;25.044;2022-09-29T06:13:42;100166.29;;;11.03;44.37
73518;BME280;61766;60.318;25.044;2022-09-29T06:16:05;100171.25;;;10.96;43.87
73518;BME280;61766;60.318;25.044;2022-09-29T06:18:30;100167.86;;;10.66;44.14
73518;BME280;61766;60.318;25.044;2022-09-29T06:21:00;100169.41;;;10.37;45.63
73518;BME280;61766;60.318;25.044;2022-09-29T06:23:20;100167.59;;;10.15;45.76
73518;BME280;61766;60.318;25.044;2022-09-29T06:25:45;100164.61;;;10.22;45.82
73518;BME280;61766;60.318;25.044;2022-09-29T06:28:10;100161.74;;;10.01;45.98
73518;BME280;61766;60.318;25.044;2022-09-29T06:30:35;100157.78;;;10.66;44.72
73518;BME280;61766;60.318;25.044;2022-09-29T06:33:00;100158.03;;;10.29;45.08
73518;BME280;61766;60.318;25.044;2022-09-29T06:35:25;100158.01;;;10.45;44.42
73518;BME280;61766;60.318;25.044;2022-09-29T06:37:52;100159.27;;;10.63;44.02
73518;BME280;61766;60.318;25.044;2022-09-29T06:40:16;100159.13;;;10.75;43.67
73518;BME280;61766;60.318;25.044;2022-09-29T06:42:41;100157.50;;;11.29;42.60
73518;BME280;61766;60.318;25.044;2022-09-29T06:45:07;100158.81;;;10.70;44.06
73518;BME280;61766;60.318;25.044;2022-09-29T06:47:31;100156.22;;;11.04;43.72
73518;BME280;61766;60.318;25.044;2022-09-29T06:49:56;100157.19;;;10.79;44.40
73518;BME280;61766;60.318;25.044;2022-09-29T06:52:21;100151.95;;;11.02;43.97
73518;BME280;61766;60.318;25.044;2022-09-29T06:54:46;100148.55;;;10.57;44.41
73518;BME280;61766;60.318;25.044;2022-09-29T06:57:11;100149.24;;;10.83;44.51
73518;BME280;61766;60.318;25.044;2022-09-29T06:59:36;100147.65;;;10.99;43.74
73518;BME280;61766;60.318;25.044;2022-09-29T07:02:01;100147.76;;;10.67;44.54
73518;BME280;61766;60.318;25.044;2022-09-29T07:04:26;100149.12;;;10.92;44.00
73518;BME280;61766;60.318;25.044;2022-09-29T07:06:51;100145.36;;;10.94;44.32
73518;BME280;61766;60.318;25.044;2022-09-29T07:09:17;100145.25;;;10.84;44.02
73518;BME280;61766;60.318;25.044;2022-09-29T07:11:42;100143.67;;;10.78;44.17
73518;BME280;61766;60.318;25.044;2022-09-29T07:14:06;100142.89;;;11.10;44.00
73518;BME280;61766;60.318;25.044;2022-09-29T07:16:31;100143.67;;;11.40;43.89
73518;BME280;61766;60.318;25.044;2022-09-29T07:18:57;100142.48;;;11.20;43.65
73518;BME280;61766;60.318;25.044;2022-09-29T07:21:21;100140.73;;;10.98;43.80
73518;BME280;61766;60.318;25.044;2022-09-29T07:23:47;100142.43;;;11.48;43.43
73518;BME280;61766;60.318;25.044;2022-09-29T07:26:12;100143.14;;;11.48;43.19
73518;BME280;61766;60.318;25.044;2022-09-29T07:28:37;100141.84;;;11.09;43.38
73518;BME280;61766;60.318;25.044;2022-09-29T07:31:04;100140.93;;;11.38;43.34
73518;BME280;61766;60.318;25.044;2022-09-29T07:33:27;100142.30;;;11.74;43.11
73518;BME280;61766;60.318;25.044;2022-09-29T07:35:52;100144.28;;;11.26;43.72
73518;BME280;61766;60.318;25.044;2022-09-29T07:38:17;100141.61;;;11.37;43.69
73518;BME280;61766;60.318;25.044;2022-09-29T07:40:42;100142.48;;;11.15;43.93
73518;BME280;61766;60.318;25.044;2022-09-29T07:43:07;100144.99;;;11.27;44.18
73518;BME280;61766;60.318;25.044;2022-09-29T07:45:32;100144.42;;;11.35;44.37
73518;BME280;61766;60.318;25.044;2022-09-29T07:47:57;100143.63;;;11.35;43.86
73518;BME280;61766;60.318;25.044;2022-09-29T07:50:22;100142.10;;;11.48;43.59
73518;BME280;61766;60.318;25.044;2022-09-29T07:52:49;100144.10;;;11.39;43.85
73518;BME280;61766;60.318;25.044;2022-09-29T07:55:12;100138.92;;;11.39;43.43
73518;BME280;61766;60.318;25.044;2022-09-29T07:57:37;100142.04;;;11.29;43.91
73518;BME280;61766;60.318;25.044;2022-09-29T08:00:03;100139.12;;;11.36;44.07
73518;BME280;61766;60.318;25.044;2022-09-29T08:02:27;100141.37;;;11.44;43.92
73518;BME280;61766;60.318;25.044;2022-09-29T08:04:52;100142.06;;;11.42;43.78
73518;BME280;61766;60.318;25.044;2022-09-29T08:07:17;100143.17;;;11.51;44.03
73518;BME280;61766;60.318;25.044;2022-09-29T08:09:42;100138.48;;;11.17;44.36
73518;BME280;61766;60.318;25.044;2022-09-29T08:12:08;100134.75;;;11.15;44.17
73518;BME280;61766;60.318;25.044;2022-09-29T08:14:33;100137.07;;;11.31;44.23
73518;BME280;61766;60.318;25.044;2022-09-29T08:16:58;100135.42;;;11.62;44.49
73518;BME280;61766;60.318;25.044;2022-09-29T08:19:23;100132.64;;;11.24;44.82
73518;BME280;61766;60.318;25.044;2022-09-29T08:21:48;100131.52;;;11.14;44.70
73518;BME280;61766;60.318;25.044;2022-09-29T08:24:13;100131.37;;;11.65;44.21
73518;BME280;61766;60.318;25.044;2022-09-29T08:26:38;100130.55;;;11.55;44.01
73518;BME280;61766;60.318;25.044;2022-09-29T08:29:03;100130.67;;;11.61;44.30
73518;BME280;61766;60.318;25.044;2022-09-29T08:31:28;100130.56;;;11.72;43.96
73518;BME280;61766;60.318;25.044;2022-09-29T08:33:55;100126.58;;;11.30;44.35
73518;BME280;61766;60.318;25.044;2022-09-29T08:36:18;100124.95;;;11.56;43.51
73518;BME280;61766;60.318;25.044;2022-09-29T08:38:45;100124.25;;;11.70;43.38
73518;BME280;61766;60.318;25.044;2022-09-29T08:41:19;100123.21;;;11.93;43.54
73518;BME280;61766;60.318;25.044;2022-09-29T08:43:36;100123.60;;;11.55;43.79
73518;BME280;61766;60.318;25.044;2022-09-29T08:46:02;100122.99;;;11.76;43.50
73518;BME280;61766;60.318;25.044;2022-09-29T08:48:26;100120.62;;;12.00;43.31
73518;BME280;61766;60.318;25.044;2022-09-29T08:50:54;100118.49;;;12.04;43.97
73518;BME280;61766;60.318;25.044;2022-09-29T08:53:16;100117.10;;;11.84;43.90
73518;BME280;61766;60.318;25.044;2022-09-29T08:55:42;100114.26;;;11.48;44.82
73518;BME280;61766;60.318;25.044;2022-09-29T08:58:09;100112.22;;;11.70;44.24
73518;BME280;61766;60.318;25.044;2022-09-29T09:00:36;100111.39;;;11.77;44.08
73518;BME280;61766;60.318;25.044;2022-09-29T09:03:04;100111.28;;;11.58;44.53
73518;BME280;61766;60.318;25.044;2022-09-29T09:05:30;100115.11;;;11.39;44.74
73518;BME280;61766;60.318;25.044;2022-09-29T09:07:50;100113.50;;;12.04;44.54
73518;BME280;61766;60.318;25.044;2022-09-29T09:10:20;100114.59;;;12.23;44.11
73518;BME280;61766;60.318;25.044;2022-09-29T09:12:46;100111.34;;;11.87;44.13
73518;BME280;61766;60.318;25.044;2022-09-29T09:15:12;100111.40;;;11.54;45.04
73518;BME280;61766;60.318;25.044;2022-09-29T09:17:34;100110.25;;;11.96;45.00
73518;BME280;61766;60.318;25.044;2022-09-29T09:20:00;100109.01;;;11.87;44.68
73518;BME280;61766;60.318;25.044;2022-09-29T09:22:20;100109.92;;;12.22;44.70
73518;BME280;61766;60.318;25.044;2022-09-29T09:24:45;100107.72;;;12.17;44.21
73518;BME280;61766;60.318;25.044;2022-09-29T09:27:04;100107.38;;;12.07;44.13
73518;BME280;61766;60.318;25.044;2022-09-29T09:29:32;100106.71;;;12.31;44.57
73518;BME280;61766;60.318;25.044;2022-09-29T09:31:56;100106.69;;;12.12;45.04
73518;BME280;61766;60.318;25.044;2022-09-29T09:34:21;100108.09;;;11.32;45.90
73518;BME280;61766;60.318;25.044;2022-09-29T09:36:48;100107.40;;;11.94;44.93
73518;BME280;61766;60.318;25.044;2022-09-29T09:39:12;100106.39;;;12.31;44.03
73518;BME280;61766;60.318;25.044;2022-09-29T09:41:36;100104.41;;;12.74;44.11
73518;BME280;61766;60.318;25.044;2022-09-29T09:44:03;100101.95;;;12.14;44.50
73518;BME280;61766;60.318;25.044;2022-09-29T09:46:28;100105.14;;;12.14;44.71
73518;BME280;61766;60.318;25.044;2022-09-29T09:48:59;100103.83;;;12.75;44.45
73518;BME280;61766;60.318;25.044;2022-09-29T09:51:28;100103.23;;;12.26;43.76
73518;BME280;61766;60.318;25.044;2022-09-29T09:53:41;100103.55;;;12.48;43.51
73518;BME280;61766;60.318;25.044;2022-09-29T09:56:11;100106.38;;;12.19;44.93
73518;BME280;61766;60.318;25.044;2022-09-29T09:58:46;100106.35;;;11.82;45.27
73518;BME280;61766;60.318;25.044;2022-09-29T10:00:56;100105.01;;;12.05;44.96
73518;BME280;61766;60.318;25.044;2022-09-29T10:03:19;100104.93;;;11.77;45.16
73518;BME280;61766;60.318;25.044;2022-09-29T10:05:46;100106.81;;;12.19;45.10
73518;BME280;61766;60.318;25.044;2022-09-29T10:08:12;100106.87;;;12.57;44.79
73518;BME280;61766;60.318;25.044;2022-09-29T10:10:35;100105.08;;;11.57;44.94
73518;BME280;61766;60.318;25.044;2022-09-29T10:13:03;100104.86;;;11.39;46.51
73518;BME280;61766;60.318;25.044;2022-09-29T10:15:27;100107.18;;;12.10;45.65
73518;BME280;61766;60.318;25.044;2022-09-29T10:17:58;100109.32;;;12.07;45.59
73518;BME280;61766;60.318;25.044;2022-09-29T10:22:40;100108.33;;;12.38;45.08
73518;BME280;61766;60.318;25.044;2022-09-29T10:25:15;100108.78;;;12.35;44.52
73518;BME280;61766;60.318;25.044;2022-09-29T10:27:30;100103.58;;;12.47;44.10
73518;BME280;61766;60.318;25.044;2022-09-29T10:29:55;100105.15;;;12.57;44.16
73518;BME280;61766;60.318;25.044;2022-09-29T10:32:26;100108.13;;;12.44;44.16
73518;BME280;61766;60.318;25.044;2022-09-29T10:34:48;100106.90;;;12.70;43.82
73518;BME280;61766;60.318;25.044;2022-09-29T10:37:19;100105.58;;;12.60;43.46
73518;BME280;61766;60.318;25.044;2022-09-29T10:39:40;100109.45;;;12.87;43.82
73518;BME280;61766;60.318;25.044;2022-09-29T10:42:00;100110.01;;;12.87;43.16
73518;BME280;61766;60.318;25.044;2022-09-29T10:44:31;100107.45;;;12.99;43.52
73518;BME280;61766;60.318;25.044;2022-09-29T10:46:53;100104.91;;;13.12;43.37
73518;BME280;61766;60.318;25.044;2022-09-29T10:49:16;100103.20;;;12.92;43.68
73518;BME280;61766;60.318;25.044;2022-09-29T10:51:46;100101.06;;;12.91;43.72
73518;BME280;61766;60.318;25.044;2022-09-29T10:54:07;100101.69;;;13.03;43.59
73518;BME280;61766;60.318;25.044;2022-09-29T10:56:30;100100.55;;;13.25;43.48
73518;BME280;61766;60.318;25.044;2022-09-29T10:58:58;100096.65;;;13.35;43.60
73518;BME280;61766;60.318;25.044;2022-09-29T11:01:21;100095.81;;;12.91;43.93
73518;BME280;61766;60.318;25.044;2022-09-29T11:03:47;100097.44;;;12.97;43.40
73518;BME280;61766;60.318;25.044;2022-09-29T11:06:12;100096.30;;;12.81;44.89
73518;BME280;61766;60.318;25.044;2022-09-29T11:11:05;100098.88;;;12.85;44.04
73518;BME280;61766;60.318;25.044;2022-09-29T11:13:36;100097.55;;;13.06;44.05
73518;BME280;61766;60.318;25.044;2022-09-29T11:15:50;100096.63;;;12.69;44.39
73518;BME280;61766;60.318;25.044;2022-09-29T11:18:19;100096.20;;;12.89;44.30
73518;BME280;61766;60.318;25.044;2022-09-29T11:20:40;100093.98;;;12.65;43.94
73518;BME280;61766;60.318;25.044;2022-09-29T11:23:18;100092.41;;;12.78;44.57
73518;BME280;61766;60.318;25.044;2022-09-29T11:25:48;100090.95;;;12.77;44.52
73518;BME280;61766;60.318;25.044;2022-09-29T11:28:08;100089.95;;;12.63;45.08
73518;BME280;61766;60.318;25.044;2022-09-29T11:30:22;100091.55;;;12.90;44.50
73518;BME280;61766;60.318;25.044;2022-09-29T11:33:06;100091.79;;;13.09;44.36
73518;BME280;61766;60.318;25.044;2022-09-29T11:35:21;100089.28;;;12.88;44.53
73518;BME280;61766;60.318;25.044;2022-09-29T11:37:44;100089.30;;;12.92;44.52
73518;BME280;61766;60.318;25.044;2022-09-29T11:40:06;100085.65;;;12.52;44.98
73518;BME280;61766;60.318;25.044;2022-09-29T11:42:37;100085.73;;;12.35;45.15
73518;BME280;61766;60.318;25.044;2022-09-29T11:44:56;100085.78;;;12.87;44.51
73518;BME280;61766;60.318;25.044;2022-09-29T11:49:50;100083.55;;;13.12;44.07
73518;BME280;61766;60.318;25.044;2022-09-29T11:52:18;100084.97;;;13.12;44.24
73518;BME280;61766;60.318;25.044;2022-09-29T11:54:44;100088.33;;;13.31;43.48
73518;BME280;61766;60.318;25.044;2022-09-29T11:57:01;100084.39;;;12.92;44.35
73518;BME280;61766;60.318;25.044;2022-09-29T11:59:41;100083.73;;;12.95;44.43
73518;BME280;61766;60.318;25.044;2022-09-29T12:01:55;100086.95;;;13.10;44.24
73518;BME280;61766;60.318;25.044;2022-09-29T12:04:20;100086.37;;;13.06;44.18
73518;BME280;61766;60.318;25.044;2022-09-29T12:06:48;100083.13;;;12.72;44.40
73518;BME280;61766;60.318;25.044;2022-09-29T12:09:12;100082.96;;;13.09;44.25
73518;BME280;61766;60.318;25.044;2022-09-29T12:11:32;100082.16;;;13.18;43.96
73518;BME280;61766;60.318;25.044;2022-09-29T12:13:56;100082.38;;;12.80;44.49
73518;BME280;61766;60.318;25.044;2022-09-29T12:16:18;100082.71;;;13.18;44.60
73518;BME280;61766;60.318;25.044;2022-09-29T12:18:46;100086.63;;;13.12;44.31
73518;BME280;61766;60.318;25.044;2022-09-29T12:21:07;100085.14;;;12.84;44.46
73518;BME280;61766;60.318;25.044;2022-09-29T12:23:32;100087.50;;;13.27;44.10
73518;BME280;61766;60.318;25.044;2022-09-29T12:26:01;100084.77;;;13.17;43.82
73518;BME280;61766;60.318;25.044;2022-09-29T12:28:27;100085.36;;;13.15;43.46
73518;BME280;61766;60.318;25.044;2022-09-29T12:30:48;100085.81;;;13.24;43.84
73518;BME280;61766;60.318;25.044;2022-09-29T12:33:14;100082.70;;;13.26;43.94
73518;BME280;61766;60.318;25.044;2022-09-29T12:35:39;100084.57;;;13.29;43.59